createdAt,value
2018-12-17T00:01:21.516Z,39.43
2018-12-17T00:03:49.971Z,39.60
2018-12-17T00:06:18.576Z,35.83
2018-12-17T00:08:47.051Z,37.50
2018-12-17T00:11:16.275Z,38.13
2018-12-17T00:13:44.842Z,38.40
2018-12-17T00:16:13.363Z,38.53
2018-12-17T00:18:41.823Z,38.30
2018-12-17T00:21:10.323Z,41.23
2018-12-17T00:23:38.792Z,39.17
2018-12-17T00:26:09.532Z,37.40
2018-12-17T00:28:38.010Z,43.83
2018-12-17T00:31:06.495Z,41.57
2018-12-17T00:33:34.939Z,38.40
2018-12-17T00:36:03.542Z,41.63
2018-12-17T00:38:31.992Z,46.07
2018-12-17T00:41:00.482Z,38.87
2018-12-17T00:43:29.183Z,44.00
2018-12-17T00:45:57.833Z,42.83
2018-12-17T00:48:26.442Z,47.73
2018-12-17T00:50:55.057Z,45.57
2018-12-17T00:53:23.535Z,47.73
2018-12-17T00:55:52.037Z,43.97
2018-12-17T00:58:20.480Z,44.43
2018-12-17T01:00:48.972Z,44.20
2018-12-17T01:03:17.458Z,44.10
2018-12-17T01:05:45.995Z,41.93
2018-12-17T01:08:14.475Z,47.20
2018-12-17T01:10:42.963Z,46.27
2018-12-17T01:13:11.418Z,46.97
2018-12-17T01:15:39.916Z,50.87
2018-12-17T01:18:08.412Z,48.20
2018-12-17T01:20:36.952Z,44.80
2018-12-17T01:23:05.473Z,47.10
2018-12-17T01:25:34.212Z,45.27
2018-12-17T01:28:02.680Z,48.93
2018-12-17T01:30:31.159Z,47.37
2018-12-17T01:32:59.624Z,54.87
2018-12-17T01:35:28.171Z,54.90
2018-12-17T01:37:56.610Z,56.43
2018-12-17T01:40:25.117Z,55.90
2018-12-17T01:42:53.587Z,54.93
2018-12-17T01:45:22.093Z,58.80
2018-12-17T01:47:50.556Z,57.17
2018-12-17T01:50:19.036Z,57.27
2018-12-17T01:52:47.479Z,53.47
2018-12-17T01:55:15.935Z,53.00
2018-12-17T01:57:44.419Z,59.10
2018-12-17T02:00:12.915Z,52.83
2018-12-17T02:02:41.438Z,54.93
2018-12-17T02:05:09.912Z,49.67
2018-12-17T02:07:38.413Z,51.40
2018-12-17T02:10:07.039Z,47.70
2018-12-17T02:12:35.534Z,49.23
2018-12-17T02:15:04.484Z,47.17
2018-12-17T02:17:32.993Z,53.60
2018-12-17T02:20:01.490Z,47.40
2018-12-17T02:22:29.967Z,48.63
2018-12-17T02:24:58.420Z,46.00
2018-12-17T02:27:26.916Z,48.57
2018-12-17T02:29:55.410Z,47.27
2018-12-17T02:32:23.888Z,46.00
2018-12-17T02:34:52.339Z,43.37
2018-12-17T02:37:20.835Z,45.90
2018-12-17T02:39:49.318Z,46.17
2018-12-17T02:42:17.891Z,46.83
2018-12-17T02:44:46.350Z,43.87
2018-12-17T02:47:14.858Z,42.20
2018-12-17T02:49:43.339Z,44.53
2018-12-17T02:52:11.850Z,45.43
2018-12-17T02:54:40.810Z,42.53
2018-12-17T02:57:09.291Z,42.07
2018-12-17T02:59:37.749Z,44.33
2018-12-17T03:02:06.252Z,42.70
2018-12-17T03:04:34.692Z,40.23
2018-12-17T03:07:03.208Z,43.27
2018-12-17T03:09:31.658Z,42.10
2018-12-17T03:12:00.159Z,42.57
2018-12-17T03:14:28.665Z,43.70
2018-12-17T03:16:57.150Z,44.27
2018-12-17T03:19:25.638Z,45.07
2018-12-17T03:21:54.166Z,43.63
2018-12-17T03:24:22.653Z,44.03
2018-12-17T03:26:51.302Z,45.47
2018-12-17T03:29:19.802Z,45.33
2018-12-17T03:33:12.677Z,41.60
2018-12-17T03:35:41.168Z,39.83
2018-12-17T03:38:09.654Z,48.97
2018-12-17T03:40:38.088Z,44.53
2018-12-17T03:43:06.614Z,44.27
2018-12-17T03:45:35.080Z,46.67
2018-12-17T03:48:03.765Z,45.90
2018-12-17T03:50:32.244Z,47.73
2018-12-17T03:53:00.733Z,49.13
2018-12-17T03:55:29.173Z,47.40
2018-12-17T03:57:57.664Z,46.87
2018-12-17T04:00:26.128Z,48.00
2018-12-17T04:02:54.656Z,41.87
2018-12-17T04:05:23.183Z,43.70
2018-12-17T04:07:51.663Z,46.30
2018-12-17T04:10:20.138Z,48.73
2018-12-17T04:12:48.979Z,42.53
2018-12-17T04:15:17.514Z,45.73
2018-12-17T04:17:45.965Z,51.40
2018-12-17T04:20:14.399Z,47.57
2018-12-17T04:22:42.902Z,49.20
2018-12-17T04:25:11.394Z,52.73
2018-12-17T04:27:39.885Z,46.67
2018-12-17T04:30:08.605Z,48.50
2018-12-17T04:32:37.123Z,50.57
2018-12-17T04:35:06.077Z,54.70
2018-12-17T04:37:34.590Z,53.57
2018-12-17T04:40:03.181Z,49.83
2018-12-17T04:42:31.668Z,49.20
2018-12-17T04:45:00.112Z,54.13
2018-12-17T04:47:28.630Z,50.37
2018-12-17T04:49:57.088Z,54.03
2018-12-17T04:52:25.582Z,58.23
2018-12-17T04:54:54.139Z,57.50
2018-12-17T04:57:22.621Z,54.90
2018-12-17T04:59:51.108Z,55.10
2018-12-17T05:02:19.667Z,59.57
2018-12-17T05:04:48.223Z,51.70
2018-12-17T05:07:16.704Z,50.13
2018-12-17T05:09:45.164Z,51.83
2018-12-17T05:12:13.643Z,50.47
2018-12-17T05:14:42.116Z,49.53
2018-12-17T05:17:10.620Z,55.63
2018-12-17T05:19:39.064Z,53.27
2018-12-17T05:22:07.563Z,48.83
2018-12-17T05:24:36.017Z,49.27
2018-12-17T05:27:04.521Z,52.73
2018-12-17T05:29:32.999Z,52.47
2018-12-17T05:32:01.501Z,51.87
2018-12-17T05:34:29.997Z,57.63
2018-12-17T05:36:58.479Z,59.53
2018-12-17T05:39:26.968Z,58.27
2018-12-17T05:41:55.467Z,59.43
2018-12-17T05:44:23.937Z,64.53
2018-12-17T05:46:52.445Z,69.27
2018-12-17T05:49:20.897Z,62.50
2018-12-17T05:51:49.434Z,66.80
2018-12-17T05:54:17.876Z,63.33
2018-12-17T05:56:46.353Z,68.10
2018-12-17T05:59:14.908Z,60.07
2018-12-17T06:01:43.444Z,69.53
2018-12-17T06:04:11.957Z,60.53
2018-12-17T06:06:40.446Z,59.87
2018-12-17T06:09:12.246Z,66.13
2018-12-17T06:11:40.984Z,60.90
2018-12-17T06:14:09.478Z,68.67
2018-12-17T06:16:37.945Z,66.33
2018-12-17T06:19:06.468Z,67.30
2018-12-17T06:21:34.938Z,70.40
2018-12-17T06:24:03.580Z,67.27
2018-12-17T06:26:32.018Z,65.77
2018-12-17T06:29:00.716Z,67.87
2018-12-17T06:31:29.873Z,70.73
2018-12-17T06:33:58.450Z,68.90
2018-12-17T06:36:26.963Z,65.07
2018-12-17T06:38:56.282Z,67.17
2018-12-17T06:41:24.924Z,71.70
2018-12-17T06:43:53.408Z,71.07
2018-12-17T06:46:21.858Z,68.00
2018-12-17T06:48:50.342Z,60.70
2018-12-17T06:51:21.135Z,67.60
2018-12-17T06:53:49.654Z,63.10
2018-12-17T06:56:18.100Z,68.83
2018-12-17T06:58:46.552Z,65.97
2018-12-17T07:01:15.007Z,63.83
2018-12-17T07:03:43.478Z,62.47
2018-12-17T07:06:11.912Z,67.77
2018-12-17T07:08:40.349Z,66.80
2018-12-17T07:11:08.779Z,63.63
2018-12-17T07:13:37.275Z,60.37
2018-12-17T07:16:05.844Z,70.83
2018-12-17T07:18:34.324Z,70.63
2018-12-17T07:21:02.764Z,62.63
2018-12-17T07:23:31.252Z,67.23
2018-12-17T07:25:59.708Z,67.20
2018-12-17T07:28:28.176Z,70.27
2018-12-17T07:30:56.621Z,68.67
2018-12-17T07:33:25.136Z,74.20
2018-12-17T07:35:53.593Z,68.43
2018-12-17T07:38:22.076Z,64.03
2018-12-17T07:40:50.510Z,68.07
2018-12-17T07:43:19.010Z,61.10
2018-12-17T07:45:47.450Z,66.73
2018-12-17T07:48:15.923Z,62.83
2018-12-17T07:50:44.674Z,60.43
2018-12-17T07:53:13.166Z,60.77
2018-12-17T07:55:41.635Z,62.43
2018-12-17T07:58:10.137Z,60.03
2018-12-17T08:00:38.667Z,58.83
2018-12-17T08:03:07.158Z,63.03
2018-12-17T08:05:35.601Z,62.33
2018-12-17T08:08:04.127Z,66.03
2018-12-17T08:10:32.601Z,53.17
2018-12-17T08:13:01.237Z,57.80
2018-12-17T08:15:29.744Z,60.90
2018-12-17T08:18:09.485Z,60.73
2018-12-17T08:20:38.000Z,58.30
2018-12-17T08:23:06.568Z,60.53
2018-12-17T08:25:35.051Z,57.43
2018-12-17T08:28:03.557Z,57.60
2018-12-17T08:30:32.008Z,59.53
2018-12-17T08:33:00.489Z,54.37
2018-12-17T08:35:29.000Z,54.13
2018-12-17T08:37:57.553Z,57.27
2018-12-17T08:40:26.001Z,57.03
2018-12-17T08:42:54.491Z,57.33
2018-12-17T08:45:22.948Z,56.47
2018-12-17T08:47:51.516Z,54.70
2018-12-17T08:50:20.121Z,54.90
2018-12-17T08:52:48.636Z,53.80
2018-12-17T08:55:17.095Z,53.73
2018-12-17T08:57:45.551Z,53.73
2018-12-17T09:00:14.278Z,51.50
2018-12-17T09:02:42.753Z,50.77
2018-12-17T09:05:11.379Z,50.73
2018-12-17T09:07:39.854Z,53.63
2018-12-17T09:10:08.927Z,55.73
2018-12-17T09:12:37.365Z,53.03
2018-12-17T09:15:06.225Z,61.70
2018-12-17T09:17:34.701Z,53.27
2018-12-17T09:20:03.363Z,54.17
2018-12-17T09:22:31.844Z,58.63
2018-12-17T09:25:00.427Z,58.33
2018-12-17T09:27:29.023Z,61.37
2018-12-17T09:29:57.492Z,59.03
2018-12-17T09:32:26.099Z,60.73
2018-12-17T09:34:54.610Z,60.37
2018-12-17T09:37:23.068Z,64.13
2018-12-17T09:39:51.582Z,59.57
2018-12-17T09:42:20.035Z,61.57
2018-12-17T09:44:48.530Z,60.23
2018-12-17T09:47:17.023Z,60.63
2018-12-17T09:49:45.502Z,59.40
2018-12-17T09:52:13.965Z,63.20
2018-12-17T09:54:42.430Z,64.17
2018-12-17T09:57:11.007Z,65.53
2018-12-17T09:59:39.544Z,62.73
2018-12-17T10:02:07.995Z,56.73
2018-12-17T10:04:36.458Z,58.27
2018-12-17T10:07:04.923Z,62.00
2018-12-17T10:09:33.392Z,66.40
2018-12-17T10:12:01.874Z,60.53
2018-12-17T10:14:30.427Z,65.77
2018-12-17T10:16:58.913Z,58.87
2018-12-17T10:19:27.456Z,62.90
2018-12-17T10:21:55.895Z,53.33
2018-12-17T10:24:24.367Z,61.83
2018-12-17T10:26:52.816Z,54.07
2018-12-17T10:29:21.312Z,59.50
2018-12-17T10:31:49.759Z,54.13
2018-12-17T10:34:18.271Z,50.87
2018-12-17T10:36:46.811Z,55.60
2018-12-17T10:39:15.306Z,54.70
2018-12-17T10:41:43.760Z,55.10
2018-12-17T10:44:12.226Z,52.97
2018-12-17T10:46:40.713Z,54.57
2018-12-17T10:49:09.147Z,58.53
2018-12-17T10:51:37.698Z,50.70
2018-12-17T10:54:06.206Z,61.20
2018-12-17T10:56:34.832Z,57.50
2018-12-17T10:59:03.336Z,59.03
2018-12-17T11:01:37.397Z,62.37
2018-12-17T11:04:13.636Z,57.27
2018-12-17T11:06:42.151Z,57.70
2018-12-17T11:09:10.927Z,51.77
2018-12-17T11:11:39.429Z,62.93
2018-12-17T11:14:07.926Z,54.63
2018-12-17T11:16:36.477Z,54.87
2018-12-17T11:19:04.932Z,54.33
2018-12-17T11:21:33.531Z,58.53
2018-12-17T11:24:01.990Z,60.37
2018-12-17T11:26:30.470Z,55.07
2018-12-17T11:28:58.944Z,58.33
2018-12-17T11:31:28.314Z,57.53
2018-12-17T11:33:56.792Z,62.50
2018-12-17T11:36:25.336Z,54.57
2018-12-17T11:38:53.785Z,61.30
2018-12-17T11:41:22.284Z,61.80
2018-12-17T11:43:50.719Z,67.23
2018-12-17T11:46:19.225Z,57.50
2018-12-17T11:48:48.044Z,60.73
2018-12-17T11:51:16.529Z,67.73
2018-12-17T11:53:44.988Z,58.40
2018-12-17T11:56:13.518Z,63.77
2018-12-17T11:58:41.986Z,64.30
2018-12-17T12:01:11.411Z,63.43
2018-12-17T12:03:42.298Z,64.07
2018-12-17T12:06:14.145Z,60.73
2018-12-17T12:08:41.271Z,68.47
2018-12-17T12:11:09.736Z,64.57
2018-12-17T12:13:38.246Z,58.97
2018-12-17T12:16:06.706Z,56.40
2018-12-17T12:18:35.172Z,57.20
2018-12-17T12:21:03.641Z,54.40
2018-12-17T12:23:32.124Z,59.43
2018-12-17T12:26:00.602Z,56.67
2018-12-17T12:28:29.099Z,61.57
2018-12-17T12:31:00.513Z,63.87
2018-12-17T12:33:28.069Z,62.57
2018-12-17T12:35:56.511Z,66.10
2018-12-17T12:38:25.420Z,70.50
2018-12-17T12:40:53.911Z,69.77
2018-12-17T12:43:22.408Z,61.23
2018-12-17T12:45:50.860Z,58.97
2018-12-17T12:48:19.339Z,74.80
2018-12-17T12:50:47.775Z,70.97
2018-12-17T12:53:16.372Z,67.97
2018-12-17T12:55:44.894Z,80.80
2018-12-17T12:59:37.866Z,79.10
2018-12-17T13:02:06.410Z,71.37
2018-12-17T13:04:34.915Z,70.43
2018-12-17T13:07:03.377Z,74.23
2018-12-17T13:09:31.906Z,72.17
2018-12-17T13:12:00.380Z,78.17
2018-12-17T13:14:28.910Z,71.60
2018-12-17T13:16:57.376Z,74.97
2018-12-17T13:19:25.851Z,70.50
2018-12-17T13:21:54.299Z,77.00
2018-12-17T13:24:22.773Z,72.30
2018-12-17T13:26:51.244Z,92.03
2018-12-17T13:29:19.727Z,86.13
2018-12-17T13:31:48.227Z,82.13
2018-12-17T13:34:16.708Z,73.60
2018-12-17T13:36:45.127Z,75.93
2018-12-17T13:39:13.620Z,66.47
2018-12-17T13:41:42.317Z,72.03
2018-12-17T13:44:10.891Z,70.10
2018-12-17T13:46:39.340Z,74.40
2018-12-17T13:49:07.950Z,72.53
2018-12-17T13:51:38.412Z,84.17
2018-12-17T13:54:07.092Z,81.83
2018-12-17T13:56:35.523Z,94.47
2018-12-17T13:59:04.207Z,94.10
2018-12-17T14:01:33.705Z,83.20
2018-12-17T14:04:02.301Z,85.07
2018-12-17T14:06:30.880Z,143.57
2018-12-17T14:08:59.335Z,155.90
2018-12-17T14:11:27.849Z,141.73
2018-12-17T14:13:56.335Z,164.03
2018-12-17T14:16:30.064Z,122.37
2018-12-17T14:19:03.704Z,93.77
2018-12-17T14:22:07.027Z,145.60
2018-12-17T14:24:35.628Z,192.63
2018-12-17T14:27:04.220Z,223.97
2018-12-17T14:29:32.723Z,134.07
2018-12-17T14:32:01.201Z,200.30
2018-12-17T14:34:29.703Z,79.80
2018-12-17T14:36:58.175Z,86.97
2018-12-17T14:39:26.627Z,69.07
2018-12-17T14:41:55.121Z,66.97
2018-12-17T14:44:28.794Z,66.50
2018-12-17T14:46:59.699Z,60.67
2018-12-17T14:49:28.332Z,68.00
2018-12-17T14:51:56.832Z,75.03
2018-12-17T14:54:25.399Z,64.20
2018-12-17T14:56:53.897Z,65.83
2018-12-17T14:59:22.365Z,65.97
2018-12-17T15:01:50.870Z,68.10
2018-12-17T15:04:20.348Z,63.67
2018-12-17T15:06:48.842Z,67.70
2018-12-17T15:09:17.303Z,69.90
2018-12-17T15:11:45.772Z,82.43
2018-12-17T15:14:14.275Z,95.63
2018-12-17T15:16:42.755Z,82.80
2018-12-17T15:19:11.209Z,118.83
2018-12-17T15:24:32.890Z,115.87
2018-12-17T15:27:01.348Z,95.13
2018-12-17T15:29:29.762Z,89.97
2018-12-17T15:31:58.209Z,83.43
2018-12-17T15:34:26.762Z,86.30
2018-12-17T15:36:55.301Z,82.17
2018-12-17T15:39:23.960Z,112.60
2018-12-17T15:41:52.642Z,100.60
2018-12-17T15:44:21.091Z,96.13
2018-12-17T15:46:49.547Z,92.77
2018-12-17T15:49:17.951Z,87.07
2018-12-17T15:51:46.873Z,106.63
2018-12-17T15:57:07.760Z,98.97
2018-12-17T15:59:36.821Z,97.97
2018-12-17T16:02:05.450Z,117.73
2018-12-17T16:04:33.941Z,109.83
2018-12-17T16:07:02.401Z,103.33
2018-12-17T16:09:30.837Z,102.40
2018-12-17T16:11:59.286Z,107.03
2018-12-17T16:14:27.773Z,114.93
2018-12-17T16:16:56.248Z,112.83
2018-12-17T16:19:24.679Z,118.83
2018-12-17T16:21:53.240Z,112.90
2018-12-17T16:24:21.678Z,121.33
2018-12-17T16:26:50.238Z,127.03
2018-12-17T16:29:18.706Z,122.33
2018-12-17T16:31:47.329Z,119.77
2018-12-17T16:34:15.760Z,110.83
2018-12-17T16:36:44.500Z,117.40
2018-12-17T16:39:13.042Z,107.43
2018-12-17T16:41:41.499Z,101.43
2018-12-17T16:44:09.932Z,102.90
2018-12-17T16:46:40.568Z,109.30
2018-12-17T16:49:09.215Z,106.10
2018-12-17T16:51:37.732Z,116.70
2018-12-17T16:54:06.172Z,105.73
2018-12-17T16:56:34.602Z,108.30
2018-12-17T16:59:03.083Z,105.23
2018-12-17T17:01:31.630Z,107.23
2018-12-17T17:04:00.107Z,103.20
2018-12-17T17:06:28.648Z,107.80
2018-12-17T17:08:58.852Z,110.40
2018-12-17T17:11:27.767Z,109.20
2018-12-17T17:13:56.278Z,105.53
2018-12-17T17:16:24.765Z,110.07
2018-12-17T17:18:53.234Z,135.67
2018-12-17T17:21:21.869Z,119.87
2018-12-17T17:23:50.374Z,138.60
2018-12-17T17:26:18.835Z,115.37
2018-12-17T17:28:47.429Z,134.03
2018-12-17T17:31:15.987Z,104.70
2018-12-17T17:33:44.480Z,109.73
2018-12-17T17:36:12.938Z,112.07
2018-12-17T17:38:41.419Z,179.27
2018-12-17T17:41:09.911Z,109.33
2018-12-17T17:43:38.484Z,114.70
2018-12-17T17:46:06.921Z,95.47
2018-12-17T17:48:35.572Z,104.27
2018-12-17T17:51:04.168Z,141.00
2018-12-17T17:53:32.661Z,146.33
2018-12-17T17:56:01.108Z,103.10
2018-12-17T17:58:29.824Z,114.30
2018-12-17T18:00:58.387Z,95.93
2018-12-17T18:03:26.863Z,103.03
2018-12-17T18:05:55.349Z,105.73
2018-12-17T18:08:23.895Z,117.27
2018-12-17T18:10:52.343Z,117.70
2018-12-17T18:13:20.847Z,108.00
2018-12-17T18:15:49.310Z,98.03
2018-12-17T18:18:17.792Z,100.47
2018-12-17T18:20:46.239Z,108.93
2018-12-17T18:23:14.799Z,101.47
2018-12-17T18:25:43.260Z,114.53
2018-12-17T18:28:12.787Z,107.83
2018-12-17T18:30:41.293Z,115.10
2018-12-17T18:33:09.821Z,120.70
2018-12-17T18:35:38.275Z,116.47
2018-12-17T18:38:06.776Z,115.83
2018-12-17T18:40:35.342Z,115.57
2018-12-17T18:43:04.024Z,121.87
2018-12-17T18:45:33.098Z,120.30
2018-12-17T18:48:01.577Z,115.83
2018-12-17T18:50:30.298Z,113.67
2018-12-17T18:52:59.273Z,113.70
2018-12-17T18:55:27.773Z,106.10
2018-12-17T18:57:56.256Z,108.67
2018-12-17T19:00:24.975Z,98.97
2018-12-17T19:02:53.558Z,107.43
2018-12-17T19:05:22.091Z,102.30
2018-12-17T19:07:50.545Z,101.43
2018-12-17T19:10:19.097Z,104.93
2018-12-17T19:12:47.638Z,100.40
2018-12-17T19:15:16.108Z,100.03
2018-12-17T19:17:44.732Z,115.43
2018-12-17T19:20:13.313Z,106.43
2018-12-17T19:22:41.865Z,105.87
2018-12-17T19:25:10.399Z,108.30
2018-12-17T19:27:38.851Z,101.67
2018-12-17T19:30:08.309Z,101.90
2018-12-17T19:32:40.231Z,120.20
2018-12-17T19:35:07.370Z,118.87
2018-12-17T19:37:35.819Z,128.03
2018-12-17T19:40:05.026Z,123.60
2018-12-17T19:42:33.465Z,122.57
2018-12-17T19:45:01.956Z,133.60
2018-12-17T19:47:30.399Z,122.97
2018-12-17T19:49:58.892Z,124.63
2018-12-17T19:52:27.337Z,123.20
2018-12-17T19:54:55.957Z,128.27
2018-12-17T19:57:24.435Z,144.00
2018-12-17T19:59:52.924Z,137.00
2018-12-17T20:02:21.383Z,145.07
2018-12-17T20:04:49.877Z,155.57
2018-12-17T20:07:18.365Z,152.07
2018-12-17T20:09:46.863Z,148.17
2018-12-17T20:12:15.336Z,124.33
2018-12-17T20:14:43.841Z,136.87
2018-12-17T20:17:12.402Z,145.70
2018-12-17T20:19:40.897Z,143.67
2018-12-17T20:22:09.364Z,142.80
2018-12-17T20:24:37.869Z,140.57
2018-12-17T20:27:06.328Z,136.87
2018-12-17T20:29:34.833Z,133.17
2018-12-17T20:32:03.492Z,138.07
2018-12-17T20:34:31.973Z,146.93
2018-12-17T20:37:00.428Z,134.20
2018-12-17T20:39:28.956Z,138.87
2018-12-17T20:41:57.551Z,146.43
2018-12-17T20:44:26.053Z,145.83
2018-12-17T20:46:54.602Z,142.73
2018-12-17T20:49:23.093Z,154.90
2018-12-17T20:51:51.531Z,147.13
2018-12-17T20:54:20.068Z,161.57
2018-12-17T20:56:48.517Z,141.97
2018-12-17T20:59:17.079Z,143.53
2018-12-17T21:01:45.559Z,158.30
2018-12-17T21:04:14.052Z,142.00
2018-12-17T21:06:42.491Z,157.90
2018-12-17T21:09:10.952Z,153.40
2018-12-17T21:11:39.399Z,166.87
2018-12-17T21:14:07.892Z,158.33
2018-12-17T21:16:36.315Z,146.07
2018-12-17T21:19:04.829Z,150.10
2018-12-17T21:21:33.276Z,149.73
2018-12-17T21:24:01.776Z,143.37
2018-12-17T21:26:30.311Z,138.93
2018-12-17T21:28:58.791Z,140.93
2018-12-17T21:31:27.308Z,132.10
2018-12-17T21:33:55.823Z,138.37
2018-12-17T21:36:24.271Z,132.50
2018-12-17T21:38:52.789Z,137.53
2018-12-17T21:41:21.227Z,147.53
2018-12-17T21:43:49.679Z,141.40
2018-12-17T21:46:18.151Z,136.73
2018-12-17T21:48:46.658Z,132.97
2018-12-17T21:51:15.092Z,144.13
2018-12-17T21:53:43.547Z,126.07
2018-12-17T21:56:12.033Z,130.27
2018-12-17T21:58:40.507Z,125.93
2018-12-17T22:01:08.979Z,142.03
2018-12-17T22:03:37.475Z,130.47
2018-12-17T22:06:05.941Z,129.97
2018-12-17T22:08:34.390Z,130.40
2018-12-17T22:11:02.874Z,139.23
2018-12-17T22:13:31.355Z,132.47
2018-12-17T22:15:59.834Z,129.30
2018-12-17T22:18:28.360Z,121.23
2018-12-17T22:20:56.835Z,118.70
2018-12-17T22:23:25.317Z,116.43
2018-12-17T22:25:53.851Z,108.93
2018-12-17T22:28:22.306Z,108.53
2018-12-17T22:30:50.819Z,104.80
2018-12-17T22:33:19.979Z,96.57
2018-12-17T22:35:48.692Z,107.07
2018-12-17T22:38:17.143Z,90.93
2018-12-17T22:40:45.918Z,91.60
2018-12-17T22:43:14.441Z,98.37
2018-12-17T22:45:42.933Z,102.10
2018-12-17T22:48:11.368Z,114.07
2018-12-17T22:50:39.829Z,105.50
2018-12-17T22:53:08.275Z,98.20
2018-12-17T22:55:36.738Z,107.43
2018-12-17T22:58:05.196Z,100.87
2018-12-17T23:00:33.787Z,104.43
2018-12-17T23:03:02.238Z,112.07
2018-12-17T23:05:30.753Z,106.87
2018-12-17T23:07:59.198Z,105.03
2018-12-17T23:10:44.670Z,96.07
2018-12-17T23:13:24.371Z,92.70
2018-12-17T23:16:04.130Z,97.97
2018-12-17T23:18:31.515Z,101.77
2018-12-17T23:21:00.228Z,104.63
2018-12-17T23:23:29.054Z,93.33
2018-12-17T23:25:57.645Z,88.10
2018-12-17T23:28:26.212Z,93.87
2018-12-17T23:30:54.675Z,96.33
2018-12-17T23:33:23.244Z,97.63
2018-12-17T23:35:51.744Z,79.57
2018-12-17T23:38:20.205Z,84.70
2018-12-17T23:40:48.699Z,89.97
2018-12-17T23:43:17.266Z,103.13
2018-12-17T23:45:45.754Z,99.97
2018-12-17T23:48:14.213Z,98.23
2018-12-17T23:50:43.961Z,104.77
2018-12-17T23:53:12.420Z,96.00
2018-12-17T23:55:40.903Z,96.50
2018-12-17T23:58:09.334Z,93.27
